sensor_id;sensor_type;location;lat;lon;timestamp;P1;durP1;ratioP1;P2;durP2;ratioP2
3297;SDS011;1661;53.572;10.174;2023-04-03T00:00:30;13.90;;;3.85;;
3297;SDS011;1661;53.572;10.174;2023-04-03T00:02:57;9.27;;;3.70;;
3297;SDS011;1661;53.572;10.174;2023-04-03T00:05:25;10.20;;;5.40;;
3297;SDS011;1661;53.572;10.174;2023-04-03T00:07:52;4.88;;;3.50;;
3297;SDS011;1661;53.572;10.174;2023-04-03T00:10:19;7.82;;;4.18;;
3297;SDS011;1661;53.572;10.174;2023-04-03T00:12:46;4.28;;;2.90;;
3297;SDS011;1661;53.572;10.174;2023-04-03T00:15:12;4.32;;;3.47;;
3297;SDS011;1661;53.572;10.174;2023-04-03T00:17:39;4.88;;;3.42;;
3297;SDS011;1661;53.572;10.174;2023-04-03T00:20:07;9.05;;;3.85;;
3297;SDS011;1661;53.572;10.174;2023-04-03T00:22:35;4.10;;;3.30;;
3297;SDS011;1661;53.572;10.174;2023-04-03T00:25:02;6.95;;;3.45;;
3297;SDS011;1661;53.572;10.174;2023-04-03T00:27:29;5.78;;;3.30;;
3297;SDS011;1661;53.572;10.174;2023-04-03T00:29:56;7.10;;;3.65;;
3297;SDS011;1661;53.572;10.174;2023-04-03T00:32:22;6.63;;;3.00;;
3297;SDS011;1661;53.572;10.174;2023-04-03T00:34:49;7.22;;;3.28;;
3297;SDS011;1661;53.572;10.174;2023-04-03T00:37:16;3.35;;;3.05;;
3297;SDS011;1661;53.572;10.174;2023-04-03T00:39:44;3.58;;;3.22;;
3297;SDS011;1661;53.572;10.174;2023-04-03T00:42:11;3.35;;;2.53;;
3297;SDS011;1661;53.572;10.174;2023-04-03T00:47:42;3.92;;;3.30;;
3297;SDS011;1661;53.572;10.174;2023-04-03T00:50:09;8.15;;;3.47;;
3297;SDS011;1661;53.572;10.174;2023-04-03T00:52:36;5.22;;;3.35;;
3297;SDS011;1661;53.572;10.174;2023-04-03T00:55:07;7.22;;;3.97;;
3297;SDS011;1661;53.572;10.174;2023-04-03T00:57:35;3.20;;;2.35;;
3297;SDS011;1661;53.572;10.174;2023-04-03T01:00:04;6.18;;;3.30;;
3297;SDS011;1661;53.572;10.174;2023-04-03T01:02:34;5.75;;;3.53;;
3297;SDS011;1661;53.572;10.174;2023-04-03T01:05:02;4.63;;;3.25;;
3297;SDS011;1661;53.572;10.174;2023-04-03T01:07:30;4.07;;;3.65;;
3297;SDS011;1661;53.572;10.174;2023-04-03T01:09:59;5.43;;;2.90;;
3297;SDS011;1661;53.572;10.174;2023-04-03T01:12:30;4.18;;;3.13;;
3297;SDS011;1661;53.572;10.174;2023-04-03T01:15:02;3.40;;;2.95;;
3297;SDS011;1661;53.572;10.174;2023-04-03T01:17:34;4.05;;;3.70;;
3297;SDS011;1661;53.572;10.174;2023-04-03T01:20:09;5.72;;;3.45;;
3297;SDS011;1661;53.572;10.174;2023-04-03T01:23:06;15.88;;;4.80;;
3297;SDS011;1661;53.572;10.174;2023-04-03T01:25:46;6.72;;;3.13;;
3297;SDS011;1661;53.572;10.174;2023-04-03T01:28:17;5.50;;;3.00;;
3297;SDS011;1661;53.572;10.174;2023-04-03T01:30:47;6.50;;;4.20;;
3297;SDS011;1661;53.572;10.174;2023-04-03T01:33:18;5.72;;;3.42;;
3297;SDS011;1661;53.572;10.174;2023-04-03T01:35:45;8.43;;;3.60;;
3297;SDS011;1661;53.572;10.174;2023-04-03T01:38:12;5.90;;;3.60;;
3297;SDS011;1661;53.572;10.174;2023-04-03T01:40:40;3.97;;;2.75;;
3297;SDS011;1661;53.572;10.174;2023-04-03T01:43:07;10.05;;;3.88;;
3297;SDS011;1661;53.572;10.174;2023-04-03T01:45:35;3.88;;;3.50;;
3297;SDS011;1661;53.572;10.174;2023-04-03T01:48:02;6.38;;;3.42;;
3297;SDS011;1661;53.572;10.174;2023-04-03T01:50:31;6.32;;;2.70;;
3297;SDS011;1661;53.572;10.174;2023-04-03T01:52:58;9.55;;;3.80;;
3297;SDS011;1661;53.572;10.174;2023-04-03T01:55:25;3.17;;;2.67;;
3297;SDS011;1661;53.572;10.174;2023-04-03T01:57:51;2.90;;;2.70;;
3297;SDS011;1661;53.572;10.174;2023-04-03T02:00:18;7.15;;;3.85;;
3297;SDS011;1661;53.572;10.174;2023-04-03T02:02:46;6.32;;;2.85;;
3297;SDS011;1661;53.572;10.174;2023-04-03T02:05:12;3.05;;;2.85;;
3297;SDS011;1661;53.572;10.174;2023-04-03T02:07:41;2.95;;;2.75;;
3297;SDS011;1661;53.572;10.174;2023-04-03T02:10:08;4.40;;;3.97;;
3297;SDS011;1661;53.572;10.174;2023-04-03T02:12:35;5.63;;;3.75;;
3297;SDS011;1661;53.572;10.174;2023-04-03T02:15:02;3.75;;;3.35;;
3297;SDS011;1661;53.572;10.174;2023-04-03T02:17:30;4.22;;;2.70;;
3297;SDS011;1661;53.572;10.174;2023-04-03T02:22:24;4.15;;;3.63;;
3297;SDS011;1661;53.572;10.174;2023-04-03T02:24:53;6.80;;;3.22;;
3297;SDS011;1661;53.572;10.174;2023-04-03T02:27:19;3.92;;;3.15;;
3297;SDS011;1661;53.572;10.174;2023-04-03T02:29:46;5.50;;;3.00;;
3297;SDS011;1661;53.572;10.174;2023-04-03T02:32:13;4.75;;;2.65;;
3297;SDS011;1661;53.572;10.174;2023-04-03T02:34:40;11.65;;;2.85;;
3297;SDS011;1661;53.572;10.174;2023-04-03T02:37:07;6.13;;;3.03;;
3297;SDS011;1661;53.572;10.174;2023-04-03T02:39:34;7.72;;;3.50;;
3297;SDS011;1661;53.572;10.174;2023-04-03T02:42:02;6.22;;;3.20;;
3297;SDS011;1661;53.572;10.174;2023-04-03T02:44:29;4.68;;;2.40;;
3297;SDS011;1661;53.572;10.174;2023-04-03T02:46:56;3.22;;;2.95;;
3297;SDS011;1661;53.572;10.174;2023-04-03T02:49:23;4.18;;;3.38;;
3297;SDS011;1661;53.572;10.174;2023-04-03T02:51:50;6.55;;;3.00;;
3297;SDS011;1661;53.572;10.174;2023-04-03T02:54:16;3.13;;;2.92;;
3297;SDS011;1661;53.572;10.174;2023-04-03T02:56:44;5.35;;;3.63;;
3297;SDS011;1661;53.572;10.174;2023-04-03T02:59:13;3.35;;;3.08;;
3297;SDS011;1661;53.572;10.174;2023-04-03T03:01:39;6.18;;;3.60;;
3297;SDS011;1661;53.572;10.174;2023-04-03T03:04:06;4.78;;;3.40;;
3297;SDS011;1661;53.572;10.174;2023-04-03T03:06:33;5.43;;;3.13;;
3297;SDS011;1661;53.572;10.174;2023-04-03T03:09:00;5.40;;;3.05;;
3297;SDS011;1661;53.572;10.174;2023-04-03T03:11:27;5.95;;;3.30;;
3297;SDS011;1661;53.572;10.174;2023-04-03T03:13:54;7.15;;;3.42;;
3297;SDS011;1661;53.572;10.174;2023-04-03T03:16:22;5.93;;;4.70;;
3297;SDS011;1661;53.572;10.174;2023-04-03T03:18:49;8.95;;;4.70;;
3297;SDS011;1661;53.572;10.174;2023-04-03T03:21:16;9.68;;;3.70;;
3297;SDS011;1661;53.572;10.174;2023-04-03T03:23:42;4.75;;;3.47;;
3297;SDS011;1661;53.572;10.174;2023-04-03T03:26:10;6.85;;;3.00;;
3297;SDS011;1661;53.572;10.174;2023-04-03T03:28:37;4.43;;;4.03;;
3297;SDS011;1661;53.572;10.174;2023-04-03T03:31:05;6.78;;;4.22;;
3297;SDS011;1661;53.572;10.174;2023-04-03T03:33:34;3.60;;;3.30;;
3297;SDS011;1661;53.572;10.174;2023-04-03T03:36:01;4.35;;;3.95;;
3297;SDS011;1661;53.572;10.174;2023-04-03T03:38:28;4.63;;;3.80;;
3297;SDS011;1661;53.572;10.174;2023-04-03T03:40:55;3.83;;;3.40;;
3297;SDS011;1661;53.572;10.174;2023-04-03T03:43:22;5.15;;;3.78;;
3297;SDS011;1661;53.572;10.174;2023-04-03T03:45:50;7.72;;;4.85;;
3297;SDS011;1661;53.572;10.174;2023-04-03T03:48:18;5.20;;;4.80;;
3297;SDS011;1661;53.572;10.174;2023-04-03T03:50:46;5.03;;;3.45;;
3297;SDS011;1661;53.572;10.174;2023-04-03T03:53:14;7.13;;;3.35;;
3297;SDS011;1661;53.572;10.174;2023-04-03T03:55:41;5.50;;;4.93;;
3297;SDS011;1661;53.572;10.174;2023-04-03T03:58:08;4.53;;;3.97;;
3297;SDS011;1661;53.572;10.174;2023-04-03T04:00:35;5.43;;;4.20;;
3297;SDS011;1661;53.572;10.174;2023-04-03T04:03:02;4.50;;;3.90;;
3297;SDS011;1661;53.572;10.174;2023-04-03T04:05:29;9.23;;;4.35;;
3297;SDS011;1661;53.572;10.174;2023-04-03T04:07:57;2.75;;;2.55;;
3297;SDS011;1661;53.572;10.174;2023-04-03T04:10:24;3.75;;;3.40;;
3297;SDS011;1661;53.572;10.174;2023-04-03T04:12:51;6.70;;;3.30;;
3297;SDS011;1661;53.572;10.174;2023-04-03T04:15:18;8.68;;;3.95;;
3297;SDS011;1661;53.572;10.174;2023-04-03T04:17:46;7.57;;;3.97;;
3297;SDS011;1661;53.572;10.174;2023-04-03T04:20:13;5.15;;;3.95;;
3297;SDS011;1661;53.572;10.174;2023-04-03T04:22:40;3.92;;;3.63;;
3297;SDS011;1661;53.572;10.174;2023-04-03T04:25:09;5.22;;;4.50;;
3297;SDS011;1661;53.572;10.174;2023-04-03T04:27:36;8.07;;;3.83;;
3297;SDS011;1661;53.572;10.174;2023-04-03T04:30:03;4.72;;;3.00;;
3297;SDS011;1661;53.572;10.174;2023-04-03T04:32:31;5.00;;;3.97;;
3297;SDS011;1661;53.572;10.174;2023-04-03T04:34:58;7.75;;;4.90;;
3297;SDS011;1661;53.572;10.174;2023-04-03T04:37:24;3.35;;;3.05;;
3297;SDS011;1661;53.572;10.174;2023-04-03T04:39:51;5.53;;;4.53;;
3297;SDS011;1661;53.572;10.174;2023-04-03T04:42:19;7.13;;;4.57;;
3297;SDS011;1661;53.572;10.174;2023-04-03T04:44:46;4.10;;;3.80;;
3297;SDS011;1661;53.572;10.174;2023-04-03T04:47:13;9.20;;;3.55;;
3297;SDS011;1661;53.572;10.174;2023-04-03T04:49:40;3.92;;;3.60;;
3297;SDS011;1661;53.572;10.174;2023-04-03T04:52:06;6.90;;;5.30;;
3297;SDS011;1661;53.572;10.174;2023-04-03T04:54:33;5.53;;;4.93;;
3297;SDS011;1661;53.572;10.174;2023-04-03T04:57:00;6.93;;;3.88;;
3297;SDS011;1661;53.572;10.174;2023-04-03T04:59:28;5.03;;;3.83;;
3297;SDS011;1661;53.572;10.174;2023-04-03T05:01:56;5.20;;;3.97;;
3297;SDS011;1661;53.572;10.174;2023-04-03T05:04:23;4.75;;;2.90;;
3297;SDS011;1661;53.572;10.174;2023-04-03T05:06:50;5.43;;;4.30;;
3297;SDS011;1661;53.572;10.174;2023-04-03T05:09:16;3.90;;;3.47;;
3297;SDS011;1661;53.572;10.174;2023-04-03T05:11:45;6.15;;;4.20;;
3297;SDS011;1661;53.572;10.174;2023-04-03T05:14:12;5.18;;;4.75;;
3297;SDS011;1661;53.572;10.174;2023-04-03T05:16:41;4.38;;;3.42;;
3297;SDS011;1661;53.572;10.174;2023-04-03T05:19:08;6.13;;;4.57;;
3297;SDS011;1661;53.572;10.174;2023-04-03T05:21:34;7.63;;;4.80;;
3297;SDS011;1661;53.572;10.174;2023-04-03T05:24:01;5.95;;;5.25;;
3297;SDS011;1661;53.572;10.174;2023-04-03T05:26:28;5.68;;;5.28;;
3297;SDS011;1661;53.572;10.174;2023-04-03T05:28:55;4.45;;;4.05;;
3297;SDS011;1661;53.572;10.174;2023-04-03T05:31:22;5.25;;;4.85;;
3297;SDS011;1661;53.572;10.174;2023-04-03T05:33:51;5.35;;;4.95;;
3297;SDS011;1661;53.572;10.174;2023-04-03T05:36:18;9.10;;;5.15;;
3297;SDS011;1661;53.572;10.174;2023-04-03T05:38:45;4.85;;;4.40;;
3297;SDS011;1661;53.572;10.174;2023-04-03T05:41:12;7.88;;;5.80;;
3297;SDS011;1661;53.572;10.174;2023-04-03T05:43:39;5.15;;;4.45;;
3297;SDS011;1661;53.572;10.174;2023-04-03T05:46:08;5.88;;;4.20;;
3297;SDS011;1661;53.572;10.174;2023-04-03T05:48:37;6.88;;;5.43;;
3297;SDS011;1661;53.572;10.174;2023-04-03T05:51:05;7.35;;;4.75;;
3297;SDS011;1661;53.572;10.174;2023-04-03T05:53:33;4.93;;;4.47;;
3297;SDS011;1661;53.572;10.174;2023-04-03T05:56:02;10.90;;;5.35;;
3297;SDS011;1661;53.572;10.174;2023-04-03T05:58:29;9.13;;;5.28;;
3297;SDS011;1661;53.572;10.174;2023-04-03T06:00:56;3.90;;;3.60;;
3297;SDS011;1661;53.572;10.174;2023-04-03T06:03:23;7.03;;;5.13;;
3297;SDS011;1661;53.572;10.174;2023-04-03T06:05:50;6.53;;;5.90;;
3297;SDS011;1661;53.572;10.174;2023-04-03T06:08:18;5.97;;;5.38;;
3297;SDS011;1661;53.572;10.174;2023-04-03T06:10:45;10.25;;;4.05;;
3297;SDS011;1661;53.572;10.174;2023-04-03T06:13:12;9.57;;;4.43;;
3297;SDS011;1661;53.572;10.174;2023-04-03T06:15:40;9.88;;;5.70;;
3297;SDS011;1661;53.572;10.174;2023-04-03T06:18:06;23.73;;;5.75;;
3297;SDS011;1661;53.572;10.174;2023-04-03T06:20:33;8.50;;;4.05;;
3297;SDS011;1661;53.572;10.174;2023-04-03T06:23:00;11.05;;;3.67;;
3297;SDS011;1661;53.572;10.174;2023-04-03T06:25:28;5.95;;;4.05;;
3297;SDS011;1661;53.572;10.174;2023-04-03T06:27:56;3.85;;;3.38;;
3297;SDS011;1661;53.572;10.174;2023-04-03T06:30:23;4.80;;;3.72;;
3297;SDS011;1661;53.572;10.174;2023-04-03T06:32:50;7.18;;;4.78;;
3297;SDS011;1661;53.572;10.174;2023-04-03T06:35:17;7.10;;;4.00;;
3297;SDS011;1661;53.572;10.174;2023-04-03T06:37:44;7.82;;;3.25;;
3297;SDS011;1661;53.572;10.174;2023-04-03T06:40:12;4.72;;;3.65;;
3297;SDS011;1661;53.572;10.174;2023-04-03T06:42:46;9.02;;;3.55;;
3297;SDS011;1661;53.572;10.174;2023-04-03T06:45:13;5.80;;;3.20;;
3297;SDS011;1661;53.572;10.174;2023-04-03T06:47:40;6.10;;;4.78;;
3297;SDS011;1661;53.572;10.174;2023-04-03T06:50:08;4.30;;;3.42;;
3297;SDS011;1661;53.572;10.174;2023-04-03T06:52:36;6.90;;;3.45;;
3297;SDS011;1661;53.572;10.174;2023-04-03T06:55:05;7.70;;;4.13;;
3297;SDS011;1661;53.572;10.174;2023-04-03T06:57:32;3.73;;;3.43;;
3297;SDS011;1661;53.572;10.174;2023-04-03T07:00:00;3.50;;;3.20;;
3297;SDS011;1661;53.572;10.174;2023-04-03T07:02:28;7.40;;;3.70;;
3297;SDS011;1661;53.572;10.174;2023-04-03T07:04:54;9.40;;;3.90;;
3297;SDS011;1661;53.572;10.174;2023-04-03T07:07:21;6.43;;;2.40;;
3297;SDS011;1661;53.572;10.174;2023-04-03T07:09:48;4.80;;;2.83;;
3297;SDS011;1661;53.572;10.174;2023-04-03T07:12:15;5.00;;;2.70;;
3297;SDS011;1661;53.572;10.174;2023-04-03T07:14:42;6.80;;;2.50;;
3297;SDS011;1661;53.572;10.174;2023-04-03T07:17:10;9.60;;;2.67;;
3297;SDS011;1661;53.572;10.174;2023-04-03T07:19:37;10.07;;;2.57;;
3297;SDS011;1661;53.572;10.174;2023-04-03T07:22:03;4.13;;;2.33;;
3297;SDS011;1661;53.572;10.174;2023-04-03T07:24:30;7.07;;;3.43;;
3297;SDS011;1661;53.572;10.174;2023-04-03T07:26:57;12.13;;;3.43;;
3297;SDS011;1661;53.572;10.174;2023-04-03T07:29:24;5.67;;;3.37;;
3297;SDS011;1661;53.572;10.174;2023-04-03T07:31:50;6.27;;;3.13;;
3297;SDS011;1661;53.572;10.174;2023-04-03T07:34:18;4.97;;;2.80;;
3297;SDS011;1661;53.572;10.174;2023-04-03T07:36:45;3.37;;;2.40;;
3297;SDS011;1661;53.572;10.174;2023-04-03T07:39:12;6.73;;;2.33;;
3297;SDS011;1661;53.572;10.174;2023-04-03T07:41:39;4.27;;;2.60;;
3297;SDS011;1661;53.572;10.174;2023-04-03T07:44:05;5.20;;;2.77;;
3297;SDS011;1661;53.572;10.174;2023-04-03T07:46:34;5.47;;;2.60;;
3297;SDS011;1661;53.572;10.174;2023-04-03T07:49:01;6.50;;;3.00;;
3297;SDS011;1661;53.572;10.174;2023-04-03T07:51:32;7.77;;;2.70;;
3297;SDS011;1661;53.572;10.174;2023-04-03T07:53:59;3.57;;;2.47;;
3297;SDS011;1661;53.572;10.174;2023-04-03T07:56:26;5.03;;;2.00;;
3297;SDS011;1661;53.572;10.174;2023-04-03T07:58:53;2.43;;;1.80;;
3297;SDS011;1661;53.572;10.174;2023-04-03T08:01:20;3.67;;;2.17;;
3297;SDS011;1661;53.572;10.174;2023-04-03T08:03:47;3.43;;;2.00;;
3297;SDS011;1661;53.572;10.174;2023-04-03T08:06:14;4.90;;;1.77;;
3297;SDS011;1661;53.572;10.174;2023-04-03T08:08:42;6.97;;;2.40;;
3297;SDS011;1661;53.572;10.174;2023-04-03T08:11:10;5.67;;;1.50;;
3297;SDS011;1661;53.572;10.174;2023-04-03T08:13:37;8.63;;;2.93;;
3297;SDS011;1661;53.572;10.174;2023-04-03T08:16:07;1.90;;;1.43;;
3297;SDS011;1661;53.572;10.174;2023-04-03T08:18:35;3.30;;;1.57;;
3297;SDS011;1661;53.572;10.174;2023-04-03T08:21:07;4.53;;;1.70;;
3297;SDS011;1661;53.572;10.174;2023-04-03T08:23:43;1.90;;;1.20;;
3297;SDS011;1661;53.572;10.174;2023-04-03T08:26:11;3.50;;;1.50;;
3297;SDS011;1661;53.572;10.174;2023-04-03T08:28:39;4.43;;;1.87;;
3297;SDS011;1661;53.572;10.174;2023-04-03T08:31:09;4.87;;;1.97;;
3297;SDS011;1661;53.572;10.174;2023-04-03T08:33:38;2.50;;;2.23;;
3297;SDS011;1661;53.572;10.174;2023-04-03T08:36:07;7.60;;;1.80;;
3297;SDS011;1661;53.572;10.174;2023-04-03T08:38:43;7.03;;;2.00;;
3297;SDS011;1661;53.572;10.174;2023-04-03T08:41:11;3.23;;;1.83;;
3297;SDS011;1661;53.572;10.174;2023-04-03T08:43:46;2.13;;;1.23;;
3297;SDS011;1661;53.572;10.174;2023-04-03T08:46:31;3.47;;;1.57;;
3297;SDS011;1661;53.572;10.174;2023-04-03T08:49:06;6.90;;;2.13;;
3297;SDS011;1661;53.572;10.174;2023-04-03T08:51:49;5.00;;;1.97;;
3297;SDS011;1661;53.572;10.174;2023-04-03T08:54:22;2.57;;;1.20;;
3297;SDS011;1661;53.572;10.174;2023-04-03T08:56:53;2.13;;;1.20;;
3297;SDS011;1661;53.572;10.174;2023-04-03T08:59:24;1.90;;;1.00;;
3297;SDS011;1661;53.572;10.174;2023-04-03T09:01:53;3.23;;;1.37;;
3297;SDS011;1661;53.572;10.174;2023-04-03T09:04:21;2.17;;;1.17;;
3297;SDS011;1661;53.572;10.174;2023-04-03T09:06:49;2.80;;;1.50;;
3297;SDS011;1661;53.572;10.174;2023-04-03T09:09:35;1.60;;;1.50;;
3297;SDS011;1661;53.572;10.174;2023-04-03T09:12:09;4.90;;;1.57;;
3297;SDS011;1661;53.572;10.174;2023-04-03T09:14:43;3.60;;;1.70;;
3297;SDS011;1661;53.572;10.174;2023-04-03T09:17:20;7.70;;;1.27;;
3297;SDS011;1661;53.572;10.174;2023-04-03T09:19:56;3.27;;;1.80;;
3297;SDS011;1661;53.572;10.174;2023-04-03T09:22:28;3.10;;;1.60;;
3297;SDS011;1661;53.572;10.174;2023-04-03T09:25:00;1.90;;;1.67;;
3297;SDS011;1661;53.572;10.174;2023-04-03T09:27:32;2.17;;;1.63;;
3297;SDS011;1661;53.572;10.174;2023-04-03T09:29:59;3.47;;;1.57;;
3297;SDS011;1661;53.572;10.174;2023-04-03T09:32:27;2.60;;;1.40;;
3297;SDS011;1661;53.572;10.174;2023-04-03T09:34:56;3.40;;;1.57;;
3297;SDS011;1661;53.572;10.174;2023-04-03T09:37:36;3.60;;;1.30;;
3297;SDS011;1661;53.572;10.174;2023-04-03T09:40:12;4.00;;;1.30;;
3297;SDS011;1661;53.572;10.174;2023-04-03T09:42:56;3.10;;;1.40;;
3297;SDS011;1661;53.572;10.174;2023-04-03T09:45:25;3.63;;;1.10;;
3297;SDS011;1661;53.572;10.174;2023-04-03T09:48:04;2.90;;;1.43;;
3297;SDS011;1661;53.572;10.174;2023-04-03T09:50:33;1.80;;;1.33;;
3297;SDS011;1661;53.572;10.174;2023-04-03T09:53:04;1.40;;;1.30;;
3297;SDS011;1661;53.572;10.174;2023-04-03T09:55:41;3.93;;;1.70;;
3297;SDS011;1661;53.572;10.174;2023-04-03T09:58:22;3.23;;;1.50;;
3297;SDS011;1661;53.572;10.174;2023-04-03T10:00:53;4.50;;;1.90;;
3297;SDS011;1661;53.572;10.174;2023-04-03T10:03:23;5.73;;;2.20;;
3297;SDS011;1661;53.572;10.174;2023-04-03T10:05:52;4.00;;;1.87;;
3297;SDS011;1661;53.572;10.174;2023-04-03T10:08:21;2.30;;;1.20;;
3297;SDS011;1661;53.572;10.174;2023-04-03T10:16:43;1.90;;;1.47;;
3297;SDS011;1661;53.572;10.174;2023-04-03T10:19:22;2.60;;;1.60;;
3297;SDS011;1661;53.572;10.174;2023-04-03T10:22:02;2.63;;;1.07;;
3297;SDS011;1661;53.572;10.174;2023-04-03T10:24:36;1.87;;;1.37;;
3297;SDS011;1661;53.572;10.174;2023-04-03T10:27:10;2.07;;;1.20;;
3297;SDS011;1661;53.572;10.174;2023-04-03T10:29:47;3.83;;;1.87;;
3297;SDS011;1661;53.572;10.174;2023-04-03T10:32:28;2.13;;;1.67;;
3297;SDS011;1661;53.572;10.174;2023-04-03T10:35:08;1.47;;;1.20;;
3297;SDS011;1661;53.572;10.174;2023-04-03T10:37:47;1.40;;;1.23;;
3297;SDS011;1661;53.572;10.174;2023-04-03T10:40:23;2.00;;;1.10;;
3297;SDS011;1661;53.572;10.174;2023-04-03T10:42:58;2.73;;;1.00;;
3297;SDS011;1661;53.572;10.174;2023-04-03T10:45:32;6.43;;;1.90;;
3297;SDS011;1661;53.572;10.174;2023-04-03T10:48:14;3.70;;;1.63;;
3297;SDS011;1661;53.572;10.174;2023-04-03T10:50:50;8.97;;;1.73;;
3297;SDS011;1661;53.572;10.174;2023-04-03T10:53:24;1.37;;;1.27;;
3297;SDS011;1661;53.572;10.174;2023-04-03T10:55:59;3.20;;;1.30;;
3297;SDS011;1661;53.572;10.174;2023-04-03T10:58:30;2.17;;;1.57;;
3297;SDS011;1661;53.572;10.174;2023-04-03T11:01:02;5.03;;;1.40;;
3297;SDS011;1661;53.572;10.174;2023-04-03T11:03:34;2.90;;;1.87;;
3297;SDS011;1661;53.572;10.174;2023-04-03T11:06:06;2.87;;;2.03;;
3297;SDS011;1661;53.572;10.174;2023-04-03T11:08:37;7.03;;;2.13;;
3297;SDS011;1661;53.572;10.174;2023-04-03T11:11:09;3.83;;;1.67;;
3297;SDS011;1661;53.572;10.174;2023-04-03T11:13:41;8.47;;;1.87;;
3297;SDS011;1661;53.572;10.174;2023-04-03T11:16:15;3.37;;;1.57;;
3297;SDS011;1661;53.572;10.174;2023-04-03T11:18:47;2.40;;;1.33;;
3297;SDS011;1661;53.572;10.174;2023-04-03T11:21:20;2.10;;;1.47;;
3297;SDS011;1661;53.572;10.174;2023-04-03T11:23:51;3.23;;;1.43;;
3297;SDS011;1661;53.572;10.174;2023-04-03T11:26:20;1.67;;;1.33;;
3297;SDS011;1661;53.572;10.174;2023-04-03T11:28:52;2.30;;;1.20;;
3297;SDS011;1661;53.572;10.174;2023-04-03T11:31:29;2.00;;;1.70;;
3297;SDS011;1661;53.572;10.174;2023-04-03T11:34:08;4.07;;;1.87;;
3297;SDS011;1661;53.572;10.174;2023-04-03T11:36:48;1.60;;;1.50;;
3297;SDS011;1661;53.572;10.174;2023-04-03T11:39:19;8.13;;;1.60;;
3297;SDS011;1661;53.572;10.174;2023-04-03T11:41:49;2.67;;;1.20;;
3297;SDS011;1661;53.572;10.174;2023-04-03T11:44:28;2.90;;;1.60;;
3297;SDS011;1661;53.572;10.174;2023-04-03T11:47:00;2.13;;;1.20;;
3297;SDS011;1661;53.572;10.174;2023-04-03T11:55:41;3.87;;;1.40;;
3297;SDS011;1661;53.572;10.174;2023-04-03T11:58:13;1.97;;;1.60;;
3297;SDS011;1661;53.572;10.174;2023-04-03T12:00:53;2.03;;;1.17;;
3297;SDS011;1661;53.572;10.174;2023-04-03T12:06:52;1.67;;;1.37;;
3297;SDS011;1661;53.572;10.174;2023-04-03T12:12:57;2.70;;;1.83;;
3297;SDS011;1661;53.572;10.174;2023-04-03T12:18:40;6.30;;;1.57;;
3297;SDS011;1661;53.572;10.174;2023-04-03T12:21:09;3.40;;;1.60;;
3297;SDS011;1661;53.572;10.174;2023-04-03T12:23:54;3.43;;;1.57;;
3297;SDS011;1661;53.572;10.174;2023-04-03T12:26:32;4.63;;;1.37;;
3297;SDS011;1661;53.572;10.174;2023-04-03T12:29:12;2.40;;;1.83;;
3297;SDS011;1661;53.572;10.174;2023-04-03T12:31:45;1.70;;;1.37;;
3297;SDS011;1661;53.572;10.174;2023-04-03T12:34:24;2.77;;;1.70;;
3297;SDS011;1661;53.572;10.174;2023-04-03T12:37:07;2.47;;;1.43;;
3297;SDS011;1661;53.572;10.174;2023-04-03T12:39:54;2.37;;;1.30;;
3297;SDS011;1661;53.572;10.174;2023-04-03T12:42:39;2.70;;;1.20;;
3297;SDS011;1661;53.572;10.174;2023-04-03T12:45:22;1.90;;;1.20;;
3297;SDS011;1661;53.572;10.174;2023-04-03T12:47:51;2.30;;;1.50;;
3297;SDS011;1661;53.572;10.174;2023-04-03T12:50:23;3.20;;;1.40;;
3297;SDS011;1661;53.572;10.174;2023-04-03T12:52:56;3.73;;;1.60;;
3297;SDS011;1661;53.572;10.174;2023-04-03T12:55:27;2.83;;;1.40;;
3297;SDS011;1661;53.572;10.174;2023-04-03T12:57:54;2.30;;;1.60;;
3297;SDS011;1661;53.572;10.174;2023-04-03T13:00:25;5.10;;;1.53;;
3297;SDS011;1661;53.572;10.174;2023-04-03T13:02:55;1.93;;;1.63;;
3297;SDS011;1661;53.572;10.174;2023-04-03T13:05:22;2.63;;;1.33;;
3297;SDS011;1661;53.572;10.174;2023-04-03T13:07:52;3.10;;;1.50;;
3297;SDS011;1661;53.572;10.174;2023-04-03T13:10:28;1.53;;;1.33;;
3297;SDS011;1661;53.572;10.174;2023-04-03T13:12:57;5.80;;;1.70;;
3297;SDS011;1661;53.572;10.174;2023-04-03T13:15:40;3.03;;;1.40;;
3297;SDS011;1661;53.572;10.174;2023-04-03T13:18:21;2.13;;;1.37;;
3297;SDS011;1661;53.572;10.174;2023-04-03T13:20:52;3.10;;;1.33;;
3297;SDS011;1661;53.572;10.174;2023-04-03T13:23:22;2.00;;;1.33;;
3297;SDS011;1661;53.572;10.174;2023-04-03T13:25:51;5.93;;;2.10;;
3297;SDS011;1661;53.572;10.174;2023-04-03T13:28:19;2.03;;;1.30;;
3297;SDS011;1661;53.572;10.174;2023-04-03T13:30:54;1.70;;;1.40;;
3297;SDS011;1661;53.572;10.174;2023-04-03T13:33:26;2.13;;;1.70;;
3297;SDS011;1661;53.572;10.174;2023-04-03T13:35:54;1.60;;;1.20;;
3297;SDS011;1661;53.572;10.174;2023-04-03T13:38:23;4.10;;;1.17;;
3297;SDS011;1661;53.572;10.174;2023-04-03T13:40:54;1.43;;;1.30;;
3297;SDS011;1661;53.572;10.174;2023-04-03T13:43:24;2.20;;;1.20;;
3297;SDS011;1661;53.572;10.174;2023-04-03T13:45:59;5.40;;;1.90;;
3297;SDS011;1661;53.572;10.174;2023-04-03T13:48:49;3.93;;;1.23;;
3297;SDS011;1661;53.572;10.174;2023-04-03T13:51:18;3.30;;;1.17;;
3297;SDS011;1661;53.572;10.174;2023-04-03T13:53:51;1.30;;;1.10;;
3297;SDS011;1661;53.572;10.174;2023-04-03T13:56:22;2.60;;;0.97;;
3297;SDS011;1661;53.572;10.174;2023-04-03T13:59:04;2.70;;;1.57;;
3297;SDS011;1661;53.572;10.174;2023-04-03T14:01:46;4.63;;;1.87;;
3297;SDS011;1661;53.572;10.174;2023-04-03T14:04:17;2.27;;;1.33;;
3297;SDS011;1661;53.572;10.174;2023-04-03T14:06:46;2.27;;;1.80;;
3297;SDS011;1661;53.572;10.174;2023-04-03T14:09:14;5.20;;;1.30;;
3297;SDS011;1661;53.572;10.174;2023-04-03T14:11:43;2.40;;;1.50;;
3297;SDS011;1661;53.572;10.174;2023-04-03T14:14:12;1.90;;;1.63;;
3297;SDS011;1661;53.572;10.174;2023-04-03T14:16:41;2.00;;;1.50;;
3297;SDS011;1661;53.572;10.174;2023-04-03T14:19:14;1.90;;;1.17;;
3297;SDS011;1661;53.572;10.174;2023-04-03T14:21:45;2.43;;;1.30;;
3297;SDS011;1661;53.572;10.174;2023-04-03T14:24:12;2.73;;;1.43;;
3297;SDS011;1661;53.572;10.174;2023-04-03T14:26:39;4.17;;;2.00;;
3297;SDS011;1661;53.572;10.174;2023-04-03T14:29:10;3.23;;;1.77;;
3297;SDS011;1661;53.572;10.174;2023-04-03T14:31:38;3.00;;;1.43;;
3297;SDS011;1661;53.572;10.174;2023-04-03T14:34:05;4.23;;;2.00;;
3297;SDS011;1661;53.572;10.174;2023-04-03T14:36:33;1.90;;;1.30;;
3297;SDS011;1661;53.572;10.174;2023-04-03T14:38:59;2.70;;;1.40;;
3297;SDS011;1661;53.572;10.174;2023-04-03T14:41:27;3.47;;;1.30;;
3297;SDS011;1661;53.572;10.174;2023-04-03T14:43:54;3.17;;;1.30;;
3297;SDS011;1661;53.572;10.174;2023-04-03T14:46:24;1.83;;;1.10;;
3297;SDS011;1661;53.572;10.174;2023-04-03T14:48:54;2.13;;;1.77;;
3297;SDS011;1661;53.572;10.174;2023-04-03T14:51:21;3.00;;;1.20;;
3297;SDS011;1661;53.572;10.174;2023-04-03T14:53:48;2.93;;;2.00;;
3297;SDS011;1661;53.572;10.174;2023-04-03T14:56:16;1.70;;;1.40;;
3297;SDS011;1661;53.572;10.174;2023-04-03T14:58:46;2.53;;;2.03;;
3297;SDS011;1661;53.572;10.174;2023-04-03T15:01:15;4.97;;;1.73;;
3297;SDS011;1661;53.572;10.174;2023-04-03T15:03:44;2.53;;;1.67;;
3297;SDS011;1661;53.572;10.174;2023-04-03T15:06:10;3.90;;;1.90;;
3297;SDS011;1661;53.572;10.174;2023-04-03T15:08:39;4.07;;;2.37;;
3297;SDS011;1661;53.572;10.174;2023-04-03T15:11:08;6.00;;;2.00;;
3297;SDS011;1661;53.572;10.174;2023-04-03T15:13:35;4.03;;;1.70;;
3297;SDS011;1661;53.572;10.174;2023-04-03T15:16:02;3.40;;;2.20;;
3297;SDS011;1661;53.572;10.174;2023-04-03T15:18:31;5.13;;;1.90;;
3297;SDS011;1661;53.572;10.174;2023-04-03T15:21:04;3.00;;;1.53;;
3297;SDS011;1661;53.572;10.174;2023-04-03T15:23:31;2.80;;;2.10;;
3297;SDS011;1661;53.572;10.174;2023-04-03T15:25:58;4.03;;;2.00;;
3297;SDS011;1661;53.572;10.174;2023-04-03T15:28:27;4.23;;;1.60;;
3297;SDS011;1661;53.572;10.174;2023-04-03T15:30:56;3.73;;;2.57;;
3297;SDS011;1661;53.572;10.174;2023-04-03T15:33:23;2.00;;;1.60;;
3297;SDS011;1661;53.572;10.174;2023-04-03T15:35:50;3.97;;;1.50;;
3297;SDS011;1661;53.572;10.174;2023-04-03T15:38:19;3.03;;;1.80;;
3297;SDS011;1661;53.572;10.174;2023-04-03T15:40:46;4.50;;;1.63;;
3297;SDS011;1661;53.572;10.174;2023-04-03T15:43:13;4.03;;;2.60;;